Time;durP1;ratioP1;P1;durP2;ratioP2;P2;SDS_P1;SDS_P2;PMS_P1;PMS_P2;Temp;Humidity;BMP_temperature;BMP_pressure;BME280_temperature;BME280_humidity;BME280_pressure;Samples;Min_cycle;Max_cycle;Signal;HPM_P1;HPM_P2
2023/08/19 00:02:17;;;;;;;26.08;19.08;;;;;;;-145.18;100.00;46660.41;5027373;28;20041;-63
2023/08/19 00:04:42;;;;;;;26.67;19.05;;;;;;;-145.18;100.00;46660.41;5030591;28;20057;-63
2023/08/19 00:07:07;;;;;;;26.05;19.25;;;;;;;-145.18;100.00;46660.41;5029480;28;20040;-63
2023/08/19 00:09:38;;;;;;;28.80;20.23;;;;;;;-145.18;100.00;46660.41;5028999;28;20463;-63
2023/08/19 00:12:04;;;;;;;28.15;17.98;;;;;;;-145.18;100.00;46658.44;5026788;28;20064;-63
2023/08/19 00:14:29;;;;;;;25.70;18.27;;;;;;;-145.18;100.00;46660.41;5029135;28;20039;-63
2023/08/19 00:16:55;;;;;;;23.90;19.23;;;;;;;-145.18;100.00;46660.41;5032194;28;20428;-63
2023/08/19 00:19:20;;;;;;;24.75;19.10;;;;;;;-145.18;100.00;46660.41;5032240;28;20481;-63
2023/08/19 00:21:46;;;;;;;27.37;19.43;;;;;;;-145.18;100.00;46654.53;5033576;28;20137;-63
2023/08/19 00:24:11;;;;;;;28.47;19.87;;;;;;;-145.18;100.00;46658.44;5032027;28;20455;-63
2023/08/19 00:26:36;;;;;;;26.27;18.87;;;;;;;-145.18;100.00;46652.59;5032018;28;20043;-63
2023/08/19 00:29:02;;;;;;;24.47;18.80;;;;;;;-145.18;100.00;46658.44;5031565;28;20045;-63
2023/08/19 00:31:27;;;;;;;25.83;19.67;;;;;;;-145.18;100.00;46652.59;5031689;28;20072;-63
2023/08/19 00:33:53;;;;;;;26.37;20.30;;;;;;;-145.18;100.00;46660.41;5032724;28;20489;-63
2023/08/19 00:36:18;;;;;;;23.70;18.43;;;;;;;-145.18;100.00;46660.41;5031947;28;20624;-63
2023/08/19 00:38:45;;;;;;;26.08;18.02;;;;;;;-145.18;100.00;46660.41;5030023;28;20033;-63
2023/08/19 00:41:11;;;;;;;29.93;19.73;;;;;;;-145.18;100.00;46658.44;5032929;28;20034;-63
2023/08/19 00:43:37;;;;;;;24.47;19.07;;;;;;;-145.18;100.00;46656.50;5032090;28;20044;-63
2023/08/19 00:46:06;;;;;;;28.03;20.83;;;;;;;-145.18;100.00;46660.41;5033139;28;20412;-63
2023/08/19 00:48:31;;;;;;;29.13;19.67;;;;;;;-145.18;100.00;46656.50;5030881;28;20033;-63
2023/08/19 00:50:58;;;;;;;25.87;19.77;;;;;;;-145.18;100.00;46658.44;5030616;28;20087;-59
2023/08/19 00:53:24;;;;;;;27.87;20.37;;;;;;;-145.18;100.00;46656.50;5029066;28;20159;-61
2023/08/19 00:55:50;;;;;;;29.83;21.07;;;;;;;-145.18;100.00;46654.53;5033364;28;20514;-61
2023/08/19 00:58:15;;;;;;;27.90;20.63;;;;;;;-145.18;100.00;46656.50;5032064;28;20037;-61
2023/08/19 01:00:41;;;;;;;30.00;19.70;;;;;;;-145.18;100.00;46654.53;5028212;28;20405;-61
2023/08/19 01:03:07;;;;;;;27.57;19.80;;;;;;;-145.18;100.00;46652.59;5033113;28;20060;-61
2023/08/19 01:05:43;;;;;;;25.97;19.50;;;;;;;-145.18;100.00;46654.53;5033366;28;20493;-61
2023/08/19 01:08:13;;;;;;;26.97;21.10;;;;;;;-145.18;100.00;46658.44;5030143;28;20022;-61
2023/08/19 01:10:50;;;;;;;32.65;21.17;;;;;;;-145.18;100.00;46652.59;5033235;28;20111;-61
2023/08/19 01:13:19;;;;;;;32.93;22.40;;;;;;;-145.18;100.00;46654.53;5033545;28;20037;-61
2023/08/19 01:15:55;;;;;;;31.53;22.07;;;;;;;-145.18;100.00;46652.59;5031662;28;20032;-61
2023/08/19 01:18:23;;;;;;;31.53;21.97;;;;;;;-145.18;100.00;46652.59;5030847;28;20037;-61
2023/08/19 01:20:49;;;;;;;29.83;20.83;;;;;;;-145.18;100.00;46652.59;5033217;28;20038;-61
2023/08/19 01:23:21;;;;;;;27.97;21.20;;;;;;;-145.18;100.00;46656.50;5032444;28;20033;-61
2023/08/19 01:25:46;;;;;;;31.40;21.33;;;;;;;-145.18;100.00;46654.53;5030863;28;20033;-61
2023/08/19 01:28:13;;;;;;;30.07;21.40;;;;;;;-145.18;100.00;46656.50;5030496;28;20117;-61
2023/08/19 01:30:39;;;;;;;29.60;20.37;;;;;;;-145.18;100.00;46654.53;5031329;28;20639;-61
2023/08/19 01:33:05;;;;;;;33.50;21.93;;;;;;;-145.18;100.00;46658.44;5030318;28;20108;-61
2023/08/19 01:35:35;;;;;;;29.97;20.70;;;;;;;-145.18;100.00;46658.44;5032465;28;20053;-61
2023/08/19 01:38:12;;;;;;;33.60;22.03;;;;;;;-145.18;100.00;46658.44;5031946;28;20025;-61
2023/08/19 01:40:39;;;;;;;29.90;21.63;;;;;;;-145.18;100.00;46654.53;5031056;28;20029;-61
2023/08/19 01:43:07;;;;;;;28.30;22.53;;;;;;;-145.18;100.00;46656.50;5030762;28;20029;-61
2023/08/19 01:45:33;;;;;;;30.37;22.07;;;;;;;-145.18;100.00;46658.44;5030962;28;20500;-61
2023/08/19 01:47:58;;;;;;;30.93;21.40;;;;;;;-145.18;100.00;46658.44;5031328;28;20033;-61
2023/08/19 01:50:24;;;;;;;29.60;22.40;;;;;;;-145.18;100.00;46652.59;5025643;28;20417;-61
2023/08/19 01:52:49;;;;;;;30.57;22.23;;;;;;;-145.18;100.00;46654.53;5032253;28;20060;-61
2023/08/19 01:55:15;;;;;;;32.40;22.80;;;;;;;-145.18;100.00;46656.50;5032003;28;20052;-61
2023/08/19 01:57:40;;;;;;;31.37;22.60;;;;;;;-145.18;100.00;46656.50;5032690;28;20033;-61
2023/08/19 02:00:07;;;;;;;29.77;21.90;;;;;;;-145.18;100.00;46652.59;5031225;28;20040;-61
2023/08/19 02:02:32;;;;;;;32.37;22.43;;;;;;;-145.18;100.00;46654.53;5030410;28;20045;-61
2023/08/19 02:04:58;;;;;;;33.83;23.00;;;;;;;-145.18;100.00;46656.50;5028615;28;20041;-61
2023/08/19 02:07:23;;;;;;;33.53;24.10;;;;;;;-145.18;100.00;46652.59;5032002;28;20567;-61
2023/08/19 02:09:49;;;;;;;31.43;21.27;;;;;;;-145.18;100.00;46650.63;5029030;28;20034;-61
2023/08/19 02:12:14;;;;;;;29.10;21.70;;;;;;;-145.18;100.00;46650.63;5031056;28;20043;-61
2023/08/19 02:14:39;;;;;;;34.00;22.00;;;;;;;-145.18;100.00;46656.50;5031855;28;20108;-61
2023/08/19 02:17:05;;;;;;;32.50;22.23;;;;;;;-145.18;100.00;46650.63;5031536;28;20160;-61
2023/08/19 02:19:30;;;;;;;29.83;21.17;;;;;;;-145.18;100.00;46652.59;5027999;28;20171;-61
2023/08/19 02:21:55;;;;;;;29.40;20.73;;;;;;;-145.18;100.00;46654.53;5029645;28;20334;-61
2023/08/19 02:24:21;;;;;;;32.37;21.93;;;;;;;-145.18;100.00;46652.59;5031497;28;20029;-61
2023/08/19 02:26:46;;;;;;;31.47;21.50;;;;;;;-145.18;100.00;46652.59;5030945;28;20092;-61
2023/08/19 02:29:12;;;;;;;30.47;21.77;;;;;;;-145.18;100.00;46652.59;5029853;28;20402;-61
2023/08/19 02:31:38;;;;;;;30.97;20.43;;;;;;;-145.18;100.00;46658.44;5030574;28;20491;-61
2023/08/19 02:34:03;;;;;;;29.17;20.53;;;;;;;-145.18;100.00;46650.63;5031180;28;20045;-61
2023/08/19 02:36:31;;;;;;;28.27;20.30;;;;;;;-145.18;100.00;46656.50;5030798;28;20045;-61
2023/08/19 02:38:57;;;;;;;28.00;20.13;;;;;;;-145.18;100.00;46652.59;5027277;28;20048;-61
2023/08/19 02:41:22;;;;;;;29.20;20.43;;;;;;;-145.18;100.00;46652.59;5029495;28;20037;-61
2023/08/19 02:43:48;;;;;;;28.30;20.47;;;;;;;-145.18;100.00;46652.59;5031321;28;20456;-61
2023/08/19 02:46:13;;;;;;;25.80;20.80;;;;;;;-145.18;100.00;46658.44;5027411;28;20117;-61
2023/08/19 02:48:39;;;;;;;27.50;18.83;;;;;;;-145.18;100.00;46654.53;5031067;28;20029;-61
2023/08/19 02:51:04;;;;;;;28.37;19.53;;;;;;;-145.18;100.00;46652.59;5028784;28;20064;-61
2023/08/19 02:53:29;;;;;;;27.73;19.33;;;;;;;-145.18;100.00;46654.53;5034358;28;20042;-61
2023/08/19 02:55:55;;;;;;;28.87;19.40;;;;;;;-145.18;100.00;46642.81;5030727;28;20029;-61
2023/08/19 02:58:21;;;;;;;27.07;20.40;;;;;;;-145.18;100.00;46658.44;5028506;28;20029;-61
2023/08/19 03:00:49;;;;;;;27.40;20.57;;;;;;;-145.18;100.00;46656.50;5028334;28;20033;-61
2023/08/19 03:03:15;;;;;;;27.63;19.60;;;;;;;-145.18;100.00;46656.50;5028793;28;20066;-61
2023/08/19 03:05:41;;;;;;;28.43;19.57;;;;;;;-145.18;100.00;46656.50;5029356;28;20061;-61
2023/08/19 03:08:07;;;;;;;33.70;18.87;;;;;;;-145.18;100.00;46652.59;5028724;28;20491;-61
2023/08/19 03:10:38;;;;;;;27.97;18.60;;;;;;;-145.18;100.00;46654.53;5030758;28;20489;-61
2023/08/19 03:13:04;;;;;;;26.33;18.47;;;;;;;-145.18;100.00;46658.44;5026530;28;20034;-61
2023/08/19 03:15:31;;;;;;;25.03;17.83;;;;;;;-145.18;100.00;46654.53;5031492;28;20033;-61
2023/08/19 03:17:56;;;;;;;26.20;18.33;;;;;;;-145.18;100.00;46658.44;5030344;28;20033;-61
2023/08/19 03:20:22;;;;;;;27.33;17.43;;;;;;;-145.18;100.00;46660.41;5030607;28;20041;-61
2023/08/19 03:22:47;;;;;;;23.27;17.33;;;;;;;-145.18;100.00;46660.41;5030613;28;20041;-60
2023/08/19 03:25:13;;;;;;;22.87;18.13;;;;;;;-145.18;100.00;46660.41;5028396;28;20048;-61
2023/08/19 03:27:38;;;;;;;20.63;16.83;;;;;;;-145.18;100.00;46658.44;5028041;28;20061;-61
2023/08/19 03:30:05;;;;;;;21.10;16.67;;;;;;;-145.18;100.00;46660.41;5026557;28;20033;-61
2023/08/19 03:32:31;;;;;;;21.27;16.70;;;;;;;-145.18;100.00;46660.41;5028126;28;20041;-61
2023/08/19 03:34:56;;;;;;;24.73;17.50;;;;;;;-145.18;100.00;46658.44;5027473;28;20108;-61
2023/08/19 03:37:22;;;;;;;22.60;16.73;;;;;;;-145.18;100.00;46660.41;5029946;28;20145;-61
2023/08/19 03:39:47;;;;;;;22.37;16.40;;;;;;;-145.18;100.00;46660.41;5029649;28;20037;-61
2023/08/19 03:42:13;;;;;;;20.00;15.73;;;;;;;-145.18;100.00;46660.41;5026926;28;20037;-61
2023/08/19 03:44:38;;;;;;;23.85;15.40;;;;;;;-145.18;100.00;46660.41;5027420;28;20038;-61
2023/08/19 03:47:03;;;;;;;18.98;14.90;;;;;;;-145.18;100.00;46660.41;5030021;28;20067;-61
2023/08/19 03:49:29;;;;;;;21.27;14.73;;;;;;;-145.18;100.00;46660.41;5026354;28;20040;-61
2023/08/19 03:51:54;;;;;;;19.50;16.10;;;;;;;-145.18;100.00;46660.41;5026866;28;20075;-61
2023/08/19 03:54:20;;;;;;;20.63;14.43;;;;;;;-145.18;100.00;46660.41;5029573;28;20029;-61
2023/08/19 03:56:45;;;;;;;19.83;15.20;;;;;;;-145.18;100.00;46660.41;5026877;28;20029;-61
2023/08/19 03:59:10;;;;;;;21.08;15.27;;;;;;;-145.18;100.00;46660.41;5027619;28;20112;-61
2023/08/19 04:01:36;;;;;;;19.20;14.13;;;;;;;-145.18;100.00;46660.41;5029469;28;20034;-61
2023/08/19 04:04:01;;;;;;;20.55;13.52;;;;;;;-145.18;100.00;46660.41;5027213;28;20041;-61
2023/08/19 04:06:26;;;;;;;16.38;13.25;;;;;;;-145.18;100.00;46660.41;5028619;28;20029;-61
2023/08/19 04:08:52;;;;;;;18.38;14.07;;;;;;;-145.18;100.00;46660.41;5028103;28;20048;-61
2023/08/19 04:11:17;;;;;;;17.73;14.40;;;;;;;-145.18;100.00;46660.41;5026807;28;20545;-61
2023/08/19 04:13:42;;;;;;;17.85;14.40;;;;;;;-145.18;100.00;46660.41;5029127;28;20042;-61
2023/08/19 04:16:08;;;;;;;20.10;14.63;;;;;;;-145.18;100.00;46660.41;5029622;28;20048;-61
2023/08/19 04:18:35;;;;;;;17.13;13.93;;;;;;;-145.18;100.00;46660.41;5033377;28;20033;-61
2023/08/19 04:21:04;;;;;;;20.58;13.70;;;;;;;-145.18;100.00;46660.41;5028736;28;20481;-61
2023/08/19 04:23:30;;;;;;;22.20;14.63;;;;;;;-145.18;100.00;46660.41;5029961;28;20068;-63
2023/08/19 04:25:55;;;;;;;18.80;14.80;;;;;;;-145.18;100.00;46660.41;5029258;28;20066;-63
2023/08/19 04:28:21;;;;;;;22.87;15.43;;;;;;;-145.18;100.00;46660.41;5029358;28;20037;-63
2023/08/19 04:30:47;;;;;;;20.13;13.37;;;;;;;-145.18;100.00;46660.41;5029133;28;20025;-63
2023/08/19 04:33:12;;;;;;;19.55;13.55;;;;;;;-145.18;100.00;46660.41;5028245;28;20037;-63
2023/08/19 04:35:37;;;;;;;19.63;14.70;;;;;;;-145.18;100.00;46660.41;5025513;28;20053;-63
2023/08/19 04:38:03;;;;;;;23.23;14.33;;;;;;;-145.18;100.00;46660.41;5034787;28;20037;-64
2023/08/19 04:40:30;;;;;;;16.45;13.38;;;;;;;-145.18;100.00;46660.41;5029356;28;20034;-63
2023/08/19 04:42:57;;;;;;;17.80;13.68;;;;;;;-145.18;100.00;46660.41;5028261;28;20037;-64
2023/08/19 04:45:22;;;;;;;20.17;15.52;;;;;;;-145.18;100.00;46660.41;5028664;28;20545;-64
2023/08/19 04:47:48;;;;;;;24.00;16.80;;;;;;;-145.18;100.00;46660.41;5024149;28;20068;-64
2023/08/19 04:50:14;;;;;;;21.07;15.57;;;;;;;-145.18;100.00;46660.41;5027010;28;20036;-64
2023/08/19 04:52:39;;;;;;;20.27;15.93;;;;;;;-145.18;100.00;46660.41;5029087;28;20396;-64
2023/08/19 04:55:05;;;;;;;19.90;15.23;;;;;;;-145.18;100.00;46660.41;5028491;28;20030;-64
2023/08/19 04:57:30;;;;;;;21.30;16.70;;;;;;;-145.18;100.00;46660.41;5028988;28;20033;-64
2023/08/19 04:59:56;;;;;;;21.43;16.63;;;;;;;-145.18;100.00;46660.41;5026451;28;20044;-64
2023/08/19 05:02:21;;;;;;;21.63;15.03;;;;;;;-145.18;100.00;46652.59;5030706;28;20041;-64
2023/08/19 05:04:47;;;;;;;23.00;15.15;;;;;;;-145.18;100.00;46654.53;5031945;28;20045;-64
2023/08/19 05:07:12;;;;;;;21.50;15.30;;;;;;;-145.18;100.00;46656.50;5031726;28;20035;-64
2023/08/19 05:09:37;;;;;;;23.60;16.87;;;;;;;-145.18;100.00;46656.50;5030128;28;20036;-64
2023/08/19 05:12:03;;;;;;;23.13;17.03;;;;;;;-145.18;100.00;46660.41;5032546;28;20110;-63
2023/08/19 05:14:28;;;;;;;25.07;16.73;;;;;;;-145.18;100.00;46656.50;5029775;28;20048;-63
2023/08/19 05:16:53;;;;;;;21.83;16.77;;;;;;;-145.18;100.00;46656.50;5032488;28;20037;-63
2023/08/19 05:19:20;;;;;;;25.20;16.50;;;;;;;-145.18;100.00;46654.53;5031767;28;20041;-63
2023/08/19 05:21:48;;;;;;;25.50;16.57;;;;;;;-145.18;100.00;46652.59;5032602;28;20120;-64
2023/08/19 05:24:14;;;;;;;20.70;15.45;;;;;;;-145.18;100.00;46654.53;5030902;28;20037;-63
2023/08/19 05:26:40;;;;;;;33.60;18.70;;;;;;;-145.18;100.00;46656.50;5030138;28;20030;-64
2023/08/19 05:29:05;;;;;;;26.90;17.80;;;;;;;-145.18;100.00;46656.50;5042597;28;20037;-63
2023/08/19 05:31:30;;;;;;;29.60;18.77;;;;;;;-145.18;100.00;46656.50;5034165;28;20033;-63
2023/08/19 05:33:56;;;;;;;28.63;19.20;;;;;;;-145.18;100.00;46656.50;5030768;28;20041;-64
2023/08/19 05:36:21;;;;;;;25.80;17.40;;;;;;;-145.18;100.00;46656.50;5043828;28;20045;-64
2023/08/19 05:38:47;;;;;;;32.20;17.10;;;;;;;-145.18;100.00;46658.44;5027109;28;20120;-64
2023/08/19 05:41:12;;;;;;;24.92;16.00;;;;;;;-145.18;100.00;46658.44;5032950;28;20029;-64
2023/08/19 05:43:38;;;;;;;25.38;16.90;;;;;;;-145.18;100.00;46658.44;5029288;28;20045;-64
2023/08/19 05:46:05;;;;;;;26.80;17.00;;;;;;;-145.18;100.00;46654.53;5031665;28;20493;-64
2023/08/19 05:48:31;;;;;;;30.83;19.50;;;;;;;-145.18;100.00;46656.50;5028539;28;20481;-64
2023/08/19 05:50:56;;;;;;;34.38;19.85;;;;;;;-145.18;100.00;46656.50;5031720;28;20029;-63
2023/08/19 05:53:22;;;;;;;30.35;18.73;;;;;;;-145.18;100.00;46656.50;5040447;28;20048;-64
2023/08/19 05:55:47;;;;;;;40.10;20.75;;;;;;;-145.18;100.00;46658.44;5033040;28;20517;-64
2023/08/19 05:58:13;;;;;;;36.85;20.05;;;;;;;-145.18;100.00;46660.41;5026980;28;20033;-64
2023/08/19 06:00:39;;;;;;;34.40;19.35;;;;;;;-145.18;100.00;46660.41;5034185;28;20559;-64
2023/08/19 06:03:04;;;;;;;35.72;19.80;;;;;;;-145.18;100.00;46660.41;5029059;28;20712;-63
2023/08/19 06:05:29;;;;;;;31.60;19.17;;;;;;;-145.18;100.00;46660.41;5027812;28;20051;-64
2023/08/19 06:07:55;;;;;;;31.30;17.30;;;;;;;-145.18;100.00;46660.41;5026992;28;20400;-64
2023/08/19 06:10:20;;;;;;;25.13;16.60;;;;;;;-145.18;100.00;46656.50;5030599;28;20508;-64
2023/08/19 06:12:46;;;;;;;22.38;15.80;;;;;;;-145.18;100.00;46660.41;5004398;28;20072;-64
2023/08/19 06:15:11;;;;;;;19.83;13.65;;;;;;;-145.18;100.00;46658.44;5028623;28;20370;-64
2023/08/19 06:17:36;;;;;;;18.70;13.35;;;;;;;-145.18;100.00;46658.44;5027043;28;20048;-63
2023/08/19 06:20:02;;;;;;;19.90;14.55;;;;;;;-145.18;100.00;46660.41;4995505;28;20063;-64
2023/08/19 06:22:28;;;;;;;21.55;14.82;;;;;;;-145.18;100.00;46660.41;5029495;28;20041;-63
2023/08/19 06:24:53;;;;;;;18.30;13.70;;;;;;;-145.18;100.00;46660.41;5031147;28;20041;-64
2023/08/19 06:27:18;;;;;;;19.65;14.25;;;;;;;-145.18;100.00;46660.41;5030221;28;20041;-63
2023/08/19 06:29:45;;;;;;;16.27;13.68;;;;;;;-145.18;100.00;46660.41;5030094;28;20045;-63
2023/08/19 06:32:11;;;;;;;22.17;13.30;;;;;;;-145.18;100.00;46629.13;5030380;28;20543;-64
2023/08/19 06:34:37;;;;;;;21.27;13.73;;;;;;;-145.18;100.00;46627.19;5033888;28;20037;-63
2023/08/19 06:37:04;;;;;;;20.15;14.02;;;;;;;-145.18;100.00;46635.00;5029236;28;20062;-64
2023/08/19 06:39:32;;;;;;;18.20;13.32;;;;;;;-145.18;100.00;46633.06;5027637;28;20037;-64
2023/08/19 06:42:03;;;;;;;23.27;13.35;;;;;;;-145.18;100.00;46631.09;5027611;28;20466;-64
2023/08/19 06:44:29;;;;;;;18.00;11.98;;;;;;;-145.18;100.00;46633.06;5025411;28;20542;-64
2023/08/19 06:46:56;;;;;;;15.38;12.05;;;;;;;-145.18;100.00;46635.00;5028289;28;20033;-64
2023/08/19 06:49:22;;;;;;;16.40;13.00;;;;;;;-145.18;100.00;46633.06;5024385;28;20034;-63
2023/08/19 06:51:48;;;;;;;21.25;13.15;;;;;;;-145.18;100.00;46636.94;5029919;28;20444;-64
2023/08/19 06:54:14;;;;;;;16.45;13.27;;;;;;;-145.18;100.00;46635.00;5039751;28;20461;-64
2023/08/19 06:56:47;;;;;;;15.38;13.15;;;;;;;-145.18;100.00;46636.94;5031041;28;20031;-63
2023/08/19 06:59:31;;;;;;;21.75;13.25;;;;;;;-145.18;100.00;46640.88;5030985;28;20040;-64
2023/08/19 07:02:01;;;;;;;19.85;13.10;;;;;;;-145.18;100.00;46636.94;5029446;28;20512;-64
2023/08/19 07:04:27;;;;;;;16.17;13.45;;;;;;;-145.18;100.00;46638.91;5029180;28;20045;-64
2023/08/19 07:06:56;;;;;;;18.67;13.65;;;;;;;-145.18;100.00;46638.91;5029041;28;20107;-64
2023/08/19 07:09:22;;;;;;;19.05;13.43;;;;;;;-145.18;100.00;46640.88;5026647;28;20029;-64
2023/08/19 07:11:48;;;;;;;17.27;13.00;;;;;;;-145.18;100.00;46638.91;5030853;28;20036;-63
2023/08/19 07:14:14;;;;;;;22.80;13.50;;;;;;;-145.18;100.00;46640.88;5026971;28;20045;-64
2023/08/19 07:16:39;;;;;;;15.63;12.52;;;;;;;-145.18;100.00;46644.78;5029117;28;20045;-64
2023/08/19 07:19:08;;;;;;;18.73;12.43;;;;;;;-145.18;100.00;46646.72;5028763;28;20045;-63
2023/08/19 07:21:35;;;;;;;17.92;12.73;;;;;;;-145.18;100.00;46648.69;5028711;28;20080;-63
2023/08/19 07:24:01;;;;;;;16.10;12.00;;;;;;;-145.18;100.00;46646.72;5028204;28;20124;-63
2023/08/19 07:26:28;;;;;;;18.27;13.13;;;;;;;-145.18;100.00;46646.72;5029636;28;20079;-64
2023/08/19 07:28:54;;;;;;;16.98;12.65;;;;;;;-145.18;100.00;46650.63;5032651;28;20038;-64
2023/08/19 07:31:23;;;;;;;15.20;11.88;;;;;;;-145.18;100.00;46646.72;5029092;28;20029;-63
2023/08/19 07:33:49;;;;;;;13.95;11.57;;;;;;;-145.18;100.00;46644.78;5023204;28;20036;-63
2023/08/19 07:36:15;;;;;;;17.77;12.00;;;;;;;-145.18;100.00;46654.53;5030026;28;20068;-64
2023/08/19 07:38:40;;;;;;;16.00;12.23;;;;;;;-145.18;100.00;46654.53;5029881;28;20481;-63
2023/08/19 07:41:06;;;;;;;16.70;12.27;;;;;;;-145.18;100.00;46648.69;5028640;28;20488;-63
2023/08/19 07:43:31;;;;;;;17.83;11.60;;;;;;;-145.18;100.00;46652.59;5027709;28;20064;-63
2023/08/19 07:45:57;;;;;;;19.23;11.85;;;;;;;-145.18;100.00;46660.41;5029671;28;20378;-63
2023/08/19 07:48:22;;;;;;;15.07;11.57;;;;;;;-145.18;100.00;46652.59;5028946;28;20075;-64
2023/08/19 07:50:47;;;;;;;14.88;11.30;;;;;;;-145.18;100.00;46650.63;5029726;28;20064;-63
2023/08/19 07:53:13;;;;;;;17.45;11.10;;;;;;;-145.18;100.00;46648.69;5029203;28;20132;-62
2023/08/19 07:55:38;;;;;;;13.85;10.80;;;;;;;-145.18;100.00;46656.50;5028914;28;20025;-61
2023/08/19 07:58:04;;;;;;;14.18;11.07;;;;;;;-145.18;100.00;46652.59;5026582;28;20033;-61
2023/08/19 08:00:30;;;;;;;16.15;10.63;;;;;;;-145.18;100.00;46652.59;5028547;28;20029;-62
2023/08/19 08:02:55;;;;;;;12.93;10.05;;;;;;;-145.18;100.00;46652.59;5027773;28;20497;-62
2023/08/19 08:05:20;;;;;;;12.57;9.32;;;;;;;-145.18;100.00;46658.44;5027390;28;20434;-61
2023/08/19 08:07:46;;;;;;;12.77;9.10;;;;;;;-145.18;100.00;46658.44;5027618;28;20033;-61
2023/08/19 08:10:11;;;;;;;15.88;9.73;;;;;;;-145.18;100.00;46656.50;5028749;28;20531;-61
2023/08/19 08:12:36;;;;;;;17.52;9.27;;;;;;;-145.18;100.00;46658.44;5025685;28;20062;-61
2023/08/19 08:15:03;;;;;;;18.90;9.63;;;;;;;-145.18;100.00;46656.50;5030115;28;20025;-62
2023/08/19 08:17:29;;;;;;;15.18;9.15;;;;;;;-145.18;100.00;46656.50;5025575;28;20037;-61
2023/08/19 08:19:56;;;;;;;13.55;10.13;;;;;;;-145.18;100.00;46654.53;5030678;28;20030;-61
2023/08/19 08:22:21;;;;;;;15.68;9.32;;;;;;;-145.18;100.00;46660.41;5029039;28;20030;-61
2023/08/19 08:24:47;;;;;;;14.05;9.48;;;;;;;-145.18;100.00;46662.34;5029589;28;20094;-62
2023/08/19 08:27:13;;;;;;;16.35;9.73;;;;;;;-145.18;100.00;46656.50;5028509;28;20128;-61
2023/08/19 08:29:39;;;;;;;15.98;9.82;;;;;;;-145.18;100.00;46660.41;5027762;28;20486;-62
2023/08/19 08:32:04;;;;;;;11.20;9.15;;;;;;;-145.18;100.00;46666.25;5029445;28;20042;-62
2023/08/19 08:34:30;;;;;;;14.50;9.60;;;;;;;-145.18;100.00;46662.34;5025921;28;20524;-61
2023/08/19 08:36:55;;;;;;;13.63;9.85;;;;;;;-145.18;100.00;46660.41;5024273;28;20045;-62
2023/08/19 08:39:21;;;;;;;17.17;10.48;;;;;;;-145.18;100.00;46656.50;5033438;28;20033;-62
2023/08/19 08:41:46;;;;;;;15.98;10.98;;;;;;;-145.18;100.00;46652.59;5031391;28;20481;-61
2023/08/19 08:44:12;;;;;;;14.80;10.88;;;;;;;-145.18;100.00;46652.59;5029691;28;20030;-62
2023/08/19 08:46:39;;;;;;;15.68;11.13;;;;;;;-145.18;100.00;46654.53;5031756;28;20026;-62
2023/08/19 08:49:05;;;;;;;16.50;12.63;;;;;;;-145.18;100.00;46662.34;5028724;28;20029;-61
2023/08/19 08:51:31;;;;;;;16.30;11.48;;;;;;;-145.18;100.00;46644.78;5028061;28;20489;-61
2023/08/19 08:53:57;;;;;;;16.17;11.65;;;;;;;-145.18;100.00;46650.63;5028940;28;20044;-62
2023/08/19 08:56:23;;;;;;;16.42;11.30;;;;;;;-145.18;100.00;46644.78;5028983;28;20053;-62
2023/08/19 08:58:49;;;;;;;17.48;12.68;;;;;;;-145.18;100.00;46652.59;5029736;28;20419;-61
2023/08/19 09:01:17;;;;;;;19.73;12.95;;;;;;;-145.18;100.00;46650.63;5032229;28;20112;-61
2023/08/19 09:03:44;;;;;;;20.55;13.55;;;;;;;-145.18;100.00;46646.72;5031941;28;20037;-61
2023/08/19 09:06:17;;;;;;;20.35;13.35;;;;;;;-145.18;100.00;46648.69;5032243;28;20036;-61
2023/08/19 09:08:49;;;;;;;18.48;12.38;;;;;;;-145.18;100.00;46652.59;5030960;28;20033;-61
2023/08/19 09:11:20;;;;;;;16.48;13.07;;;;;;;-145.18;100.00;46652.59;5030548;28;20034;-62
2023/08/19 09:13:47;;;;;;;21.08;13.45;;;;;;;-145.18;100.00;46652.59;5030293;28;20381;-60
2023/08/19 09:16:12;;;;;;;20.60;14.32;;;;;;;-145.18;100.00;46658.44;5031097;28;20095;-60
2023/08/19 09:18:41;;;;;;;21.02;14.63;;;;;;;-145.18;100.00;46654.53;5029649;28;20493;-62
2023/08/19 09:21:06;;;;;;;20.13;14.38;;;;;;;-145.18;100.00;46648.69;5029560;28;20039;-61
2023/08/19 09:23:32;;;;;;;17.65;12.32;;;;;;;-145.18;100.00;46648.69;5032586;28;20033;-61
2023/08/19 09:25:58;;;;;;;17.20;11.55;;;;;;;-145.18;100.00;46650.63;5030997;28;20106;-61
2023/08/19 09:28:24;;;;;;;16.00;11.45;;;;;;;-145.18;100.00;46650.63;5031546;28;20067;-61
2023/08/19 09:30:49;;;;;;;17.77;10.90;;;;;;;-145.18;100.00;46650.63;5029402;28;20484;-61
2023/08/19 09:33:20;;;;;;;14.98;9.70;;;;;;;-145.18;100.00;46652.59;5030752;28;20038;-61
2023/08/19 09:35:54;;;;;;;13.80;9.73;;;;;;;-145.18;100.00;46652.59;5029561;28;20064;-61
2023/08/19 09:38:22;;;;;;;14.48;8.60;;;;;;;-145.18;100.00;46654.53;5027438;28;20464;-62
2023/08/19 09:41:02;;;;;;;12.40;8.30;;;;;;;-145.18;100.00;46658.44;5031355;28;20033;-61
2023/08/19 09:43:28;;;;;;;9.68;7.35;;;;;;;-145.18;100.00;46650.63;5031317;28;20099;-61
2023/08/19 09:46:00;;;;;;;10.43;7.53;;;;;;;-145.18;100.00;46652.59;5027429;28;20619;-61
2023/08/19 09:48:26;;;;;;;11.93;7.45;;;;;;;-145.18;100.00;46658.44;5029409;28;20116;-61
2023/08/19 09:50:51;;;;;;;9.93;6.03;;;;;;;-145.18;100.00;46654.53;5032283;28;20128;-61
2023/08/19 09:53:17;;;;;;;10.15;6.88;;;;;;;-145.18;100.00;46664.31;5031132;28;20033;-61
2023/08/19 09:55:49;;;;;;;9.02;5.95;;;;;;;-145.18;100.00;46668.22;5027281;28;20024;-61
2023/08/19 09:58:14;;;;;;;6.35;5.13;;;;;;;-145.18;100.00;46666.25;5030439;28;20533;-61
2023/08/19 10:00:40;;;;;;;11.75;5.72;;;;;;;-145.18;100.00;46668.22;5032093;28;20037;-61
2023/08/19 10:03:06;;;;;;;10.90;5.10;;;;;;;-145.18;100.00;46672.13;5031071;28;20120;-61
2023/08/19 10:05:37;;;;;;;13.60;4.40;;;;;;;-145.18;100.00;46674.06;5028695;28;20044;-62
2023/08/19 10:08:17;;;;;;;7.30;4.72;;;;;;;-145.18;100.00;46676.03;5031439;28;20036;-61
2023/08/19 10:10:45;;;;;;;6.05;4.22;;;;;;;-145.18;100.00;46685.78;5025274;28;20033;-61
2023/08/19 10:13:12;;;;;;;6.20;4.47;;;;;;;-145.18;100.00;46681.88;5029528;28;20036;-61
2023/08/19 10:15:41;;;;;;;8.02;5.35;;;;;;;-145.18;100.00;46677.97;5026031;28;20022;-61
2023/08/19 10:18:14;;;;;;;5.53;4.55;;;;;;;-145.18;100.00;46677.97;5028054;28;20037;-61
2023/08/19 10:20:40;;;;;;;9.07;5.75;;;;;;;-145.18;100.00;46679.94;5029828;28;20086;-61
2023/08/19 10:23:08;;;;;;;9.77;6.13;;;;;;;-145.18;100.00;46679.94;5027207;28;20378;-61
2023/08/19 10:25:34;;;;;;;8.88;6.22;;;;;;;-145.18;100.00;46681.88;5026316;28;20293;-61
2023/08/19 10:28:29;;;;;;;7.82;6.68;;;;;;;-145.18;100.00;46676.03;5027277;28;20026;-61
2023/08/19 10:31:15;;;;;;;10.27;6.80;;;;;;;-145.18;100.00;46674.06;5027704;28;20041;-61
2023/08/19 10:33:46;;;;;;;12.40;7.22;;;;;;;-145.18;100.00;46676.03;5031809;28;20083;-61
2023/08/19 10:36:16;;;;;;;12.65;8.48;;;;;;;-145.18;100.00;46670.16;5030548;28;20069;-61
2023/08/19 10:38:42;;;;;;;15.32;8.68;;;;;;;-145.18;100.00;46668.22;5029008;28;20477;-61
2023/08/19 10:41:35;;;;;;;17.30;9.90;;;;;;;-145.18;100.00;46660.41;5030130;28;20026;-61
2023/08/19 10:44:07;;;;;;;15.85;9.88;;;;;;;-145.18;100.00;46652.59;5027801;28;20494;-61
2023/08/19 10:46:37;;;;;;;18.27;11.82;;;;;;;-145.18;100.00;46658.44;5031036;28;20403;-61
2023/08/19 10:49:08;;;;;;;19.77;11.75;;;;;;;-145.18;100.00;46660.41;5028805;28;20028;-61
2023/08/19 10:52:06;;;;;;;17.92;11.65;;;;;;;-145.18;100.00;46656.50;5030069;28;20412;-61
2023/08/19 10:54:40;;;;;;;18.52;10.60;;;;;;;-145.18;100.00;46658.44;5028670;28;20030;-61